Time;durP1;ratioP1;P1;durP2;ratioP2;P2;SDS_P1;SDS_P2;PMS_P1;PMS_P2;Temp;Humidity;BMP_temperature;BMP_pressure;BME280_temperature;BME280_humidity;BME280_pressure;Samples;Min_cycle;Max_cycle;Signal;HPM_P1;HPM_P2
2022/07/07 00:01:57;;;;;;;7.63;5.97;;;;;;;16.25;100.00;101957.31;4998673;28;20440;-67
2022/07/07 00:04:22;;;;;;;9.77;6.70;;;;;;;16.23;100.00;101965.66;4998985;28;20188;-67
2022/07/07 00:06:48;;;;;;;11.13;6.13;;;;;;;16.23;100.00;101973.78;4999511;28;20220;-67
2022/07/07 00:09:13;;;;;;;6.97;6.27;;;;;;;15.86;100.00;101885.94;5001068;28;20184;-68
2022/07/07 00:11:39;;;;;;;8.30;5.80;;;;;;;16.18;100.00;101921.31;4998653;28;20193;-67
2022/07/07 00:14:07;;;;;;;8.30;6.37;;;;;;;16.36;100.00;101953.97;4996555;28;20186;-66
2022/07/07 00:16:33;;;;;;;7.83;7.03;;;;;;;16.25;100.00;101949.19;4997508;28;20209;-66
2022/07/07 00:18:58;;;;;;;8.33;6.20;;;;;;;16.21;100.00;101935.25;5000164;28;20451;-67
2022/07/07 00:21:24;;;;;;;10.67;6.13;;;;;;;16.24;100.00;101947.53;4995642;28;20436;-68
2022/07/07 00:23:50;;;;;;;8.43;6.30;;;;;;;16.30;100.00;101933.16;4997757;28;20217;-67
2022/07/07 00:26:15;;;;;;;8.97;5.93;;;;;;;16.26;100.00;101929.22;4998321;28;20271;-67
2022/07/07 00:28:41;;;;;;;9.50;7.27;;;;;;;16.14;100.00;101895.69;4995634;28;20189;-66
2022/07/07 00:31:06;;;;;;;8.70;6.23;;;;;;;16.27;100.00;101922.75;4996935;28;20193;-67
2022/07/07 00:33:32;;;;;;;6.73;5.87;;;;;;;16.10;100.00;101876.34;4997854;28;20225;-67
2022/07/07 00:35:57;;;;;;;8.90;6.67;;;;;;;16.02;100.00;101861.16;4999920;28;20283;-68
2022/07/07 00:38:23;;;;;;;12.03;6.40;;;;;;;15.80;100.00;101822.69;4999180;28;20181;-68
2022/07/07 00:40:53;;;;;;;11.97;6.37;;;;;;;16.25;100.00;101876.94;5000399;28;20220;-68
2022/07/07 00:43:19;;;;;;;7.50;5.80;;;;;;;16.39;100.00;101893.16;5000944;28;20181;-68
2022/07/07 00:45:49;;;;;;;7.13;4.97;;;;;;;16.28;100.00;101875.69;4987072;28;20475;-68
2022/07/07 00:48:19;;;;;;;9.87;4.67;;;;;;;16.29;100.00;101869.25;4997939;28;20535;-68
2022/07/07 00:50:46;;;;;;;6.23;5.10;;;;;;;16.34;100.00;101882.97;4999076;28;20532;-68
2022/07/07 00:53:12;;;;;;;6.27;4.70;;;;;;;16.36;100.00;101878.16;4997700;28;21004;-68
2022/07/07 00:55:38;;;;;;;7.17;5.00;;;;;;;16.35;100.00;101860.28;4994672;28;20470;-68
2022/07/07 00:58:04;;;;;;;7.60;5.10;;;;;;;16.40;100.00;101863.19;4998805;28;20181;-68
2022/07/07 01:00:30;;;;;;;7.33;5.70;;;;;;;16.39;100.00;101853.38;4998209;28;20451;-68
2022/07/07 01:02:56;;;;;;;5.13;4.40;;;;;;;16.38;100.00;101856.31;4997843;28;20185;-68
2022/07/07 01:05:23;;;;;;;4.90;4.40;;;;;;;16.39;100.00;101861.50;4995623;28;20474;-68
2022/07/07 01:07:51;;;;;;;7.37;5.50;;;;;;;16.38;100.00;101862.56;4981236;28;21062;-67
2022/07/07 01:10:17;;;;;;;8.17;4.17;;;;;;;16.34;100.00;101863.19;4981738;28;20429;-67
2022/07/07 01:12:42;;;;;;;4.30;3.33;;;;;;;15.91;100.00;101842.88;4997107;28;20531;-68
2022/07/07 01:15:10;;;;;;;3.70;2.30;;;;;;;16.18;100.00;101880.72;4996348;28;20189;-68
2022/07/07 01:17:36;;;;;;;2.73;1.97;;;;;;;16.06;100.00;101874.28;4995540;28;20290;-67
2022/07/07 01:20:05;;;;;;;2.77;1.60;;;;;;;16.05;100.00;101876.13;4999781;28;20574;-68
2022/07/07 01:22:34;;;;;;;3.00;1.00;;;;;;;16.04;100.00;101861.78;4996408;28;20552;-68
2022/07/07 01:24:59;;;;;;;4.10;1.17;;;;;;;16.01;100.00;101862.19;4997667;28;21007;-68
2022/07/07 01:27:25;;;;;;;2.80;0.80;;;;;;;15.97;100.00;101855.56;4997057;28;20468;-68
2022/07/07 01:29:54;;;;;;;3.70;0.90;;;;;;;15.98;100.00;101854.50;4997759;28;20193;-69
2022/07/07 01:32:20;;;;;;;2.13;0.93;;;;;;;16.01;100.00;101853.25;4996852;28;20531;-69
2022/07/07 01:34:48;;;;;;;7.40;1.37;;;;;;;15.98;100.00;101857.22;4981261;28;20475;-66
2022/07/07 01:37:13;;;;;;;2.70;0.90;;;;;;;15.98;100.00;101849.09;4999366;28;20460;-67
2022/07/07 01:39:40;;;;;;;2.43;1.00;;;;;;;15.82;100.00;101827.88;4996091;28;20924;-67
2022/07/07 01:42:06;;;;;;;2.10;0.83;;;;;;;15.98;100.00;101832.84;4998018;28;20177;-67
2022/07/07 01:44:38;;;;;;;0.80;0.70;;;;;;;15.90;100.00;101826.84;4996114;28;20522;-67
2022/07/07 01:47:05;;;;;;;3.43;1.10;;;;;;;15.60;100.00;101784.81;4984051;28;20483;-67
2022/07/07 01:49:32;;;;;;;2.07;1.10;;;;;;;16.01;100.00;101837.84;4995733;28;20486;-68
2022/07/07 01:51:59;;;;;;;2.97;1.10;;;;;;;15.52;100.00;101763.38;4997912;28;20924;-67
2022/07/07 01:54:26;;;;;;;2.13;0.80;;;;;;;15.96;100.00;101831.41;4995275;28;20447;-68
2022/07/07 01:56:51;;;;;;;2.67;1.10;;;;;;;15.96;100.00;101826.81;4998590;28;21180;-67
2022/07/07 01:59:17;;;;;;;3.03;1.17;;;;;;;15.31;100.00;101734.69;4996598;28;20453;-68
2022/07/07 02:01:43;;;;;;;2.20;1.17;;;;;;;15.88;100.00;101816.25;4995867;28;20189;-67
2022/07/07 02:04:09;;;;;;;1.83;1.07;;;;;;;16.00;100.00;101827.25;4996452;28;20552;-67
2022/07/07 02:06:35;;;;;;;1.80;1.00;;;;;;;15.99;100.00;101826.41;4997682;28;20483;-68
2022/07/07 02:09:00;;;;;;;3.30;1.57;;;;;;;15.85;100.00;101813.91;4996768;28;20209;-67
2022/07/07 02:11:27;;;;;;;4.90;1.13;;;;;;;15.91;100.00;101810.41;4996613;28;20964;-68
2022/07/07 02:13:53;;;;;;;3.50;1.20;;;;;;;15.98;100.00;101808.50;4996269;28;20192;-68
2022/07/07 02:16:21;;;;;;;3.00;1.40;;;;;;;16.00;100.00;101819.13;4999971;28;20463;-67
2022/07/07 02:18:48;;;;;;;5.57;1.77;;;;;;;15.48;100.00;101728.88;4998214;28;20196;-67
2022/07/07 02:21:15;;;;;;;4.60;1.53;;;;;;;16.02;100.00;101819.72;4999324;28;20455;-67
2022/07/07 02:23:43;;;;;;;3.43;1.37;;;;;;;16.03;100.00;101824.13;4984858;28;20451;-66
2022/07/07 02:26:09;;;;;;;3.93;1.43;;;;;;;15.43;100.00;101721.38;5002401;28;20523;-67
2022/07/07 02:28:35;;;;;;;4.93;1.40;;;;;;;16.00;100.00;101824.53;5000011;28;20456;-68
2022/07/07 02:31:01;;;;;;;1.90;1.20;;;;;;;16.02;100.00;101808.91;5001033;28;20192;-68
2022/07/07 02:33:27;;;;;;;3.10;1.40;;;;;;;15.97;100.00;101814.97;4999731;28;20248;-68
2022/07/07 02:35:57;;;;;;;3.57;1.43;;;;;;;16.07;100.00;101814.53;4999996;28;20787;-68
2022/07/07 02:38:23;;;;;;;2.40;1.10;;;;;;;15.95;100.00;101818.91;4998003;28;20247;-68
2022/07/07 02:40:49;;;;;;;3.60;1.10;;;;;;;16.00;100.00;101809.13;5002433;28;20480;-68
2022/07/07 02:43:15;;;;;;;3.60;1.20;;;;;;;15.88;100.00;101789.19;5001056;28;20439;-68
2022/07/07 02:45:44;;;;;;;3.60;1.57;;;;;;;16.04;100.00;101814.94;4999198;28;21981;-68
2022/07/07 02:48:12;;;;;;;3.00;0.90;;;;;;;15.90;100.00;101788.97;5000463;28;20206;-68
2022/07/07 02:50:38;;;;;;;4.87;1.20;;;;;;;15.91;100.00;101796.88;4999035;28;20815;-68
2022/07/07 02:53:05;;;;;;;4.80;1.47;;;;;;;15.71;100.00;101752.78;5000068;28;20999;-68
2022/07/07 02:55:31;;;;;;;3.17;1.10;;;;;;;15.95;100.00;101794.56;4995674;28;20964;-68
2022/07/07 02:57:57;;;;;;;4.93;1.10;;;;;;;15.97;100.00;101790.63;5004208;28;20504;-68
2022/07/07 03:00:23;;;;;;;4.30;1.27;;;;;;;15.99;100.00;101787.69;4999449;28;22350;-68
2022/07/07 03:02:48;;;;;;;6.20;1.60;;;;;;;15.91;100.00;101790.59;4999782;28;20449;-68
2022/07/07 03:05:14;;;;;;;7.07;1.57;;;;;;;15.65;100.00;101748.16;5001090;28;20681;-68
2022/07/07 03:07:40;;;;;;;5.43;1.60;;;;;;;15.90;100.00;101770.84;4996973;28;20212;-68
2022/07/07 03:10:06;;;;;;;4.57;1.20;;;;;;;15.95;100.00;101784.56;5000700;28;20192;-68
2022/07/07 03:12:33;;;;;;;5.87;1.53;;;;;;;15.62;100.00;101729.66;5001030;28;20189;-68
2022/07/07 03:14:58;;;;;;;2.47;1.43;;;;;;;15.55;100.00;101726.97;4999183;28;20446;-68
2022/07/07 03:17:32;;;;;;;6.80;1.60;;;;;;;15.79;100.00;101775.03;5025202;23;20494;-67
2022/07/07 03:19:58;;;;;;;7.67;2.00;;;;;;;15.82;100.00;101762.94;5016708;28;20374;-68
2022/07/07 03:22:23;;;;;;;4.17;1.20;;;;;;;15.88;100.00;101791.88;5019919;28;20805;-68
2022/07/07 03:24:49;;;;;;;4.40;1.53;;;;;;;15.95;100.00;101787.28;5002357;28;20251;-68
2022/07/07 03:27:14;;;;;;;9.13;2.07;;;;;;;15.74;100.00;101755.06;5017268;28;20209;-68
2022/07/07 03:29:40;;;;;;;2.87;1.00;;;;;;;15.88;100.00;101778.38;5019760;28;20185;-68
2022/07/07 03:32:06;;;;;;;5.00;1.40;;;;;;;15.74;100.00;101755.06;5005106;28;20185;-68
2022/07/07 03:34:31;;;;;;;3.60;1.40;;;;;;;15.85;100.00;101761.69;5018786;28;20649;-67
2022/07/07 03:36:57;;;;;;;4.70;1.10;;;;;;;15.76;100.00;101751.09;5019381;28;20211;-67
2022/07/07 03:39:23;;;;;;;4.10;1.20;;;;;;;15.87;100.00;101794.78;5015334;28;20275;-66
2022/07/07 03:41:48;;;;;;;3.27;1.07;;;;;;;15.86;100.00;101804.78;5006876;28;20615;-68
2022/07/07 03:44:14;;;;;;;7.90;1.60;;;;;;;15.86;100.00;101802.06;5013441;28;20537;-69
2022/07/07 03:46:39;;;;;;;4.60;1.60;;;;;;;15.89;100.00;101781.91;5016870;28;20220;-68
2022/07/07 03:49:05;;;;;;;3.20;1.20;;;;;;;15.76;100.00;101778.16;5016652;28;20185;-68
2022/07/07 03:51:31;;;;;;;11.40;1.40;;;;;;;15.86;100.00;101803.97;5014121;28;20813;-68
2022/07/07 03:53:56;;;;;;;5.27;1.40;;;;;;;15.53;100.00;101739.88;5017275;28;20192;-69
2022/07/07 03:56:22;;;;;;;6.10;1.20;;;;;;;15.89;100.00;101801.66;5015335;28;20575;-69
2022/07/07 03:58:47;;;;;;;6.10;1.00;;;;;;;15.80;100.00;101794.81;5017774;28;20673;-68
2022/07/07 04:01:13;;;;;;;4.10;1.07;;;;;;;15.88;100.00;101793.75;4999274;28;20229;-69
2022/07/07 04:03:38;;;;;;;4.23;0.70;;;;;;;15.85;100.00;101792.28;5016588;28;20199;-68
2022/07/07 04:06:07;;;;;;;2.23;0.77;;;;;;;15.64;100.00;101770.84;5014847;28;20240;-68
2022/07/07 04:08:32;;;;;;;3.20;0.77;;;;;;;15.62;100.00;101740.47;5013917;28;20696;-69
2022/07/07 04:10:58;;;;;;;2.40;0.70;;;;;;;15.94;100.00;101788.34;5014555;28;20471;-67
2022/07/07 04:13:23;;;;;;;1.60;0.80;;;;;;;15.82;100.00;101784.59;5014515;28;20189;-69
2022/07/07 04:15:49;;;;;;;1.73;0.60;;;;;;;15.85;100.00;101777.94;5015654;28;20217;-69
2022/07/07 04:18:15;;;;;;;4.27;0.90;;;;;;;15.75;100.00;101784.59;4999247;28;20612;-68
2022/07/07 04:20:40;;;;;;;1.90;0.70;;;;;;;15.77;100.00;101815.00;5019290;28;20673;-68
2022/07/07 04:23:06;;;;;;;2.70;0.73;;;;;;;15.77;100.00;101798.75;5016597;28;20177;-67
2022/07/07 04:25:32;;;;;;;3.23;0.90;;;;;;;15.73;100.00;101807.50;5021784;28;20201;-66
2022/07/07 04:27:57;;;;;;;4.10;0.90;;;;;;;15.44;100.00;101787.09;5016260;28;20204;-69
2022/07/07 04:30:23;;;;;;;4.00;0.97;;;;;;;15.69;100.00;101798.16;5013905;28;20435;-70
2022/07/07 04:32:48;;;;;;;2.17;0.80;;;;;;;15.64;100.00;101816.84;4997287;28;20183;-69
2022/07/07 04:35:16;;;;;;;1.97;0.80;;;;;;;15.60;100.00;101819.13;5012717;28;20184;-69
2022/07/07 04:37:42;;;;;;;3.30;1.00;;;;;;;15.67;100.00;101808.31;5014357;28;20631;-69
2022/07/07 04:40:08;;;;;;;3.50;1.00;;;;;;;15.59;100.00;101818.31;5014548;28;20450;-68
2022/07/07 04:42:34;;;;;;;5.77;1.10;;;;;;;15.29;100.00;101784.59;5013325;28;20224;-70
2022/07/07 04:44:59;;;;;;;2.23;1.20;;;;;;;15.27;100.00;101783.97;5012867;28;20999;-69
2022/07/07 04:47:25;;;;;;;1.90;0.87;;;;;;;15.28;100.00;101810.78;5051561;23;20251;-70
2022/07/07 04:49:51;;;;;;;3.63;1.10;;;;;;;15.43;100.00;101826.00;5016661;28;20199;-70
2022/07/07 04:52:16;;;;;;;4.67;1.00;;;;;;;15.17;100.00;101808.69;5012244;28;20213;-70
2022/07/07 04:54:42;;;;;;;4.10;1.60;;;;;;;14.79;100.00;101763.31;5003153;28;20921;-69
2022/07/07 04:57:07;;;;;;;2.80;1.00;;;;;;;15.21;100.00;101814.50;5002808;28;20196;-70
2022/07/07 04:59:33;;;;;;;6.03;1.40;;;;;;;15.36;100.00;101832.22;5005355;28;20283;-70
2022/07/07 05:01:58;;;;;;;2.77;1.10;;;;;;;15.30;100.00;101805.16;4994022;28;20213;-70
2022/07/07 05:04:23;;;;;;;6.33;1.90;;;;;;;15.23;100.00;101818.69;5013765;28;20184;-69
2022/07/07 05:06:49;;;;;;;5.33;1.80;;;;;;;15.24;100.00;101820.34;4995531;28;20558;-70
2022/07/07 05:09:14;;;;;;;8.10;1.80;;;;;;;15.33;100.00;101827.22;5008422;28;20588;-69
2022/07/07 05:11:40;;;;;;;11.03;2.00;;;;;;;15.01;100.00;101788.28;4981989;28;20208;-69
2022/07/07 05:14:05;;;;;;;5.07;2.23;;;;;;;15.26;100.00;101825.53;5011194;28;20193;-69
2022/07/07 05:16:31;;;;;;;9.53;2.63;;;;;;;15.33;100.00;101838.03;5004813;28;20573;-69
2022/07/07 05:18:56;;;;;;;18.30;3.30;;;;;;;15.33;100.00;101846.16;5007159;28;20200;-70
2022/07/07 05:21:21;;;;;;;3.30;1.63;;;;;;;15.35;100.00;101845.94;5015130;28;20691;-70
2022/07/07 05:23:47;;;;;;;6.63;1.93;;;;;;;15.13;100.00;101810.97;4991604;28;20189;-70
2022/07/07 05:26:12;;;;;;;8.50;2.10;;;;;;;15.21;100.00;101819.91;5007597;28;20193;-70
2022/07/07 05:28:41;;;;;;;6.63;1.63;;;;;;;15.44;100.00;101855.50;4998037;28;20212;-70
2022/07/07 05:31:12;;;;;;;4.97;1.50;;;;;;;15.50;100.00;101853.84;5002444;28;20212;-70
2022/07/07 05:33:37;;;;;;;7.90;2.03;;;;;;;15.49;100.00;101858.44;4992906;28;20437;-70
2022/07/07 05:36:04;;;;;;;6.47;1.83;;;;;;;15.35;100.00;101865.69;5001243;28;20448;-70
2022/07/07 05:38:30;;;;;;;3.30;1.10;;;;;;;15.43;100.00;101861.97;5000030;28;20646;-70
2022/07/07 05:40:56;;;;;;;5.87;2.27;;;;;;;15.48;100.00;101856.78;4970451;28;20565;-70
2022/07/07 05:43:21;;;;;;;4.20;1.67;;;;;;;15.31;100.00;101842.81;5000088;28;20317;-70
2022/07/07 05:45:47;;;;;;;5.50;1.57;;;;;;;15.45;100.00;101859.88;4999745;28;20193;-70
2022/07/07 05:48:12;;;;;;;9.63;2.30;;;;;;;15.28;100.00;101831.59;4993215;28;20694;-70
2022/07/07 05:50:38;;;;;;;6.77;1.60;;;;;;;15.42;100.00;101881.94;5002994;28;20189;-69
2022/07/07 05:53:04;;;;;;;6.63;1.60;;;;;;;15.49;100.00;101873.81;5005507;28;20212;-69
2022/07/07 05:55:29;;;;;;;5.67;1.50;;;;;;;15.33;100.00;101867.78;4990392;28;20180;-70
2022/07/07 05:57:56;;;;;;;5.30;2.20;;;;;;;15.49;100.00;101877.34;5003857;28;20279;-69
2022/07/07 06:00:23;;;;;;;8.03;1.60;;;;;;;15.37;100.00;101860.91;5009666;28;20193;-68
2022/07/07 06:02:49;;;;;;;7.40;1.53;;;;;;;15.55;100.00;101884.63;4991321;28;20465;-69
2022/07/07 06:05:14;;;;;;;13.27;2.13;;;;;;;15.26;100.00;101839.06;4986666;28;20444;-70
2022/07/07 06:07:40;;;;;;;6.90;1.43;;;;;;;15.50;100.00;101884.41;4994289;28;20474;-70
2022/07/07 06:10:07;;;;;;;9.40;2.37;;;;;;;15.37;100.00;101879.84;5007498;28;20255;-69
2022/07/07 06:12:32;;;;;;;5.23;1.40;;;;;;;15.36;100.00;101871.91;5001468;28;20677;-70
2022/07/07 06:14:58;;;;;;;6.23;2.03;;;;;;;15.36;100.00;101890.84;5004260;28;20450;-70
2022/07/07 06:17:23;;;;;;;7.57;1.87;;;;;;;15.54;100.00;101914.59;4999478;28;20189;-71
2022/07/07 06:19:48;;;;;;;10.60;2.17;;;;;;;15.39;100.00;101895.88;4973699;28;21254;-70
2022/07/07 06:22:14;;;;;;;8.10;1.97;;;;;;;15.52;100.00;101909.38;4998801;28;20240;-69
2022/07/07 06:24:41;;;;;;;8.73;2.23;;;;;;;15.54;100.00;101922.72;4999894;28;20642;-69
2022/07/07 06:27:07;;;;;;;5.50;2.17;;;;;;;15.65;100.00;101918.56;4979064;28;20220;-69
2022/07/07 06:29:33;;;;;;;7.50;2.67;;;;;;;15.70;100.00;101913.41;4984559;28;20439;-70
2022/07/07 06:31:58;;;;;;;6.20;1.80;;;;;;;15.74;100.00;101928.19;4988808;28;20471;-70
2022/07/07 06:34:24;;;;;;;5.77;1.80;;;;;;;15.68;100.00;101924.44;4999924;28;20189;-71
2022/07/07 06:36:49;;;;;;;4.53;1.80;;;;;;;15.64;100.00;101930.41;5000297;28;20193;-70
2022/07/07 06:39:14;;;;;;;7.00;2.30;;;;;;;15.54;100.00;101923.53;5006325;28;21130;-70
2022/07/07 06:41:40;;;;;;;6.17;1.37;;;;;;;15.69;100.00;101941.50;5004526;28;20217;-70
2022/07/07 06:44:06;;;;;;;8.10;2.20;;;;;;;15.29;100.00;101906.22;4993284;28;20188;-70
2022/07/07 06:46:32;;;;;;;11.40;2.00;;;;;;;15.43;100.00;101934.13;4992758;28;20200;-69
2022/07/07 06:48:58;;;;;;;6.33;2.20;;;;;;;15.52;100.00;101952.66;5009090;28;20451;-70
2022/07/07 06:51:23;;;;;;;6.80;2.20;;;;;;;15.27;100.00;101903.72;4995835;28;20271;-70
2022/07/07 06:53:49;;;;;;;6.10;1.90;;;;;;;15.62;100.00;101954.13;4986203;28;20252;-69
2022/07/07 06:56:14;;;;;;;12.30;2.23;;;;;;;15.51;100.00;101948.28;5007839;28;20189;-70
2022/07/07 06:58:39;;;;;;;5.50;2.20;;;;;;;15.60;100.00;101957.03;4988922;28;20190;-69
2022/07/07 07:01:05;;;;;;;7.20;1.90;;;;;;;15.52;100.00;101957.22;5007423;28;20196;-69
2022/07/07 07:03:30;;;;;;;3.77;1.40;;;;;;;15.33;100.00;101919.13;4990562;28;20223;-70
2022/07/07 07:05:56;;;;;;;4.17;1.40;;;;;;;15.69;100.00;101977.47;4992539;28;20196;-70
2022/07/07 07:08:21;;;;;;;8.63;2.30;;;;;;;15.76;100.00;101981.00;5010054;28;20208;-69
2022/07/07 07:10:47;;;;;;;6.53;1.57;;;;;;;15.64;100.00;101958.28;4995300;28;20209;-68
2022/07/07 07:13:13;;;;;;;6.00;1.83;;;;;;;15.70;100.00;101959.38;4992904;28;20205;-70
2022/07/07 07:15:39;;;;;;;5.23;1.40;;;;;;;15.92;100.00;101977.09;5007220;28;20662;-69
2022/07/07 07:18:06;;;;;;;6.23;1.93;;;;;;;15.82;100.00;101963.13;5012335;28;20577;-69
2022/07/07 07:20:32;;;;;;;6.33;1.77;;;;;;;15.94;100.00;101976.88;5010945;28;20446;-69
2022/07/07 07:22:57;;;;;;;5.63;1.60;;;;;;;16.28;100.00;101983.97;5011310;28;20470;-70
2022/07/07 07:25:22;;;;;;;6.80;2.37;;;;;;;16.42;100.00;101982.94;5013690;28;20197;-70
2022/07/07 07:27:48;;;;;;;6.10;2.10;;;;;;;16.33;100.00;101962.53;5010240;28;21125;-69
2022/07/07 07:30:14;;;;;;;9.07;2.07;;;;;;;16.34;100.00;101980.44;5012691;28;20204;-70
2022/07/07 07:32:40;;;;;;;6.13;1.60;;;;;;;16.16;100.00;101986.47;5007140;28;20702;-70
2022/07/07 07:35:06;;;;;;;6.30;1.53;;;;;;;16.08;100.00;101980.44;5011352;28;20454;-70
2022/07/07 07:37:31;;;;;;;2.80;1.43;;;;;;;15.98;100.00;101959.22;5009884;28;20444;-70
2022/07/07 07:39:57;;;;;;;2.43;1.33;;;;;;;15.97;100.00;101955.69;5013323;28;20218;-70
2022/07/07 07:42:23;;;;;;;4.50;1.20;;;;;;;16.14;100.00;101975.03;5015333;28;20216;-71
2022/07/07 07:47:32;;;;;;;4.13;1.40;;;;;;;16.44;100.00;101980.03;5011912;28;20223;-70
2022/07/07 07:49:57;;;;;;;6.53;1.50;;;;;;;16.51;100.00;101975.41;5012184;28;20443;-69
2022/07/07 07:52:22;;;;;;;3.57;1.20;;;;;;;16.63;100.00;101979.13;4998114;28;20732;-70
2022/07/07 07:54:48;;;;;;;4.57;1.43;;;;;;;16.67;100.00;101971.44;5005323;28;20590;-70
2022/07/07 07:57:13;;;;;;;6.30;1.50;;;;;;;16.70;100.00;101969.13;5010684;28;20557;-71
2022/07/07 07:59:39;;;;;;;3.30;1.10;;;;;;;16.58;100.00;101978.97;5009782;28;20185;-69
2022/07/07 08:02:04;;;;;;;3.80;1.47;;;;;;;16.54;100.00;101974.16;4991597;28;20210;-69
2022/07/07 08:04:29;;;;;;;7.40;1.30;;;;;;;16.42;100.00;101957.72;5007613;28;20212;-70
2022/07/07 08:06:55;;;;;;;3.00;1.30;;;;;;;16.25;100.00;101970.84;5005942;28;20911;-69
2022/07/07 08:09:20;;;;;;;2.13;1.00;;;;;;;15.97;100.00;101915.09;4990608;28;20302;-68
2022/07/07 08:11:46;;;;;;;2.10;0.90;;;;;;;16.50;100.00;101982.72;5004665;28;22132;-69
2022/07/07 08:14:11;;;;;;;3.30;1.00;;;;;;;16.63;100.00;101999.97;5009212;28;20192;-71
2022/07/07 08:16:37;;;;;;;2.33;1.10;;;;;;;16.71;100.00;102010.59;5005216;28;20188;-69
2022/07/07 08:19:02;;;;;;;1.50;0.87;;;;;;;16.73;100.00;102017.47;5015326;28;20189;-70
2022/07/07 08:21:28;;;;;;;5.73;1.70;;;;;;;16.82;100.00;102006.44;5007501;28;20466;-70
2022/07/07 08:23:53;;;;;;;7.10;1.10;;;;;;;17.07;100.00;102020.97;4989699;28;20655;-70
2022/07/07 08:26:19;;;;;;;7.30;1.50;;;;;;;16.96;100.00;102012.69;5007861;28;20299;-70
2022/07/07 08:28:44;;;;;;;3.17;0.90;;;;;;;16.99;100.00;102006.84;5007638;28;20252;-71
2022/07/07 08:31:10;;;;;;;3.60;1.00;;;;;;;17.10;100.00;102014.31;5008410;28;20247;-70
2022/07/07 08:33:35;;;;;;;3.17;1.20;;;;;;;16.99;100.00;102018.50;5005260;28;20298;-70
2022/07/07 08:36:01;;;;;;;3.20;0.90;;;;;;;17.08;100.00;102025.34;5011735;28;20188;-69
2022/07/07 08:38:26;;;;;;;2.57;1.00;;;;;;;17.23;100.00;102011.53;5004925;28;20185;-70
2022/07/07 08:40:52;;;;;;;1.93;0.73;;;;;;;17.17;100.00;101988.00;5005713;28;20243;-69
2022/07/07 08:43:18;;;;;;;1.80;0.70;;;;;;;17.31;100.00;101994.19;5008849;28;20205;-70
2022/07/07 08:45:45;;;;;;;3.23;0.97;;;;;;;17.63;100.00;102014.88;4980845;28;20189;-70
2022/07/07 08:48:10;;;;;;;2.70;0.80;;;;;;;17.67;100.00;102004.44;5011613;28;20472;-70
2022/07/07 08:50:39;;;;;;;1.57;0.87;;;;;;;17.52;100.00;102007.44;5017898;28;20438;-69
2022/07/07 08:53:07;;;;;;;2.40;0.87;;;;;;;17.35;100.00;101973.72;5010555;28;20205;-70
2022/07/07 08:55:35;;;;;;;5.10;1.50;;;;;;;17.44;100.00;102009.56;5016428;28;20407;-70
2022/07/07 08:58:01;;;;;;;5.13;1.13;;;;;;;17.08;100.00;101990.13;5015149;28;20427;-68
2022/07/07 09:00:26;;;;;;;6.77;1.77;;;;;;;16.79;100.00;102010.41;4999140;28;20933;-70
2022/07/07 09:02:58;;;;;;;2.03;1.00;;;;;;;16.83;100.00;102046.88;5010223;28;20465;-69
2022/07/07 09:05:27;;;;;;;4.20;1.20;;;;;;;16.83;100.00;102046.88;5012419;28;20189;-69
2022/07/07 09:07:53;;;;;;;9.20;1.30;;;;;;;17.04;100.00;102045.81;5012331;28;20493;-69
2022/07/07 09:10:33;;;;;;;8.67;2.17;;;;;;;17.25;100.00;102052.00;5008323;28;20464;-69
2022/07/07 09:12:59;;;;;;;4.73;1.47;;;;;;;17.39;100.00;102067.19;4992229;28;20466;-69
2022/07/07 09:15:24;;;;;;;4.07;1.17;;;;;;;17.27;100.00;102049.88;5006830;28;20446;-70
2022/07/07 09:17:50;;;;;;;2.50;1.00;;;;;;;16.87;100.00;102052.72;5005221;28;20440;-69
2022/07/07 09:20:16;;;;;;;2.53;0.90;;;;;;;16.84;100.00;102078.38;5014676;28;20227;-69
2022/07/07 09:22:53;;;;;;;2.50;0.67;;;;;;;16.94;100.00;102080.63;5010525;28;20209;-71
2022/07/07 09:25:22;;;;;;;1.43;0.57;;;;;;;17.23;100.00;102082.03;5016850;28;20482;-71
2022/07/07 09:28:06;;;;;;;2.67;0.90;;;;;;;16.99;100.00;102063.75;4999522;28;20455;-70
2022/07/07 09:30:38;;;;;;;4.73;0.87;;;;;;;17.35;100.00;102106.59;4999530;28;21078;-70
2022/07/07 09:33:26;;;;;;;4.10;0.90;;;;;;;17.23;100.00;102063.03;5016054;28;20447;-69
2022/07/07 09:38:40;;;;;;;2.17;0.80;;;;;;;17.10;100.00;102112.72;5016248;28;20407;-70
2022/07/07 09:41:13;;;;;;;1.47;0.70;;;;;;;17.22;100.00;102112.09;5017142;28;20416;-70
2022/07/07 09:43:48;;;;;;;1.23;0.60;;;;;;;17.58;100.00;102119.69;5014393;28;20503;-70
2022/07/07 09:46:26;;;;;;;3.40;0.80;;;;;;;17.75;100.00;102120.84;5015106;28;20423;-69
2022/07/07 09:48:58;;;;;;;3.40;0.90;;;;;;;17.67;100.00;102112.97;4999255;28;20498;-69
2022/07/07 09:51:32;;;;;;;3.30;1.20;;;;;;;17.50;100.00;102111.78;4985048;28;20455;-69
2022/07/07 09:54:01;;;;;;;6.07;1.47;;;;;;;17.25;100.00;102125.22;5015075;28;20439;-71
2022/07/07 09:56:41;;;;;;;4.00;1.27;;;;;;;16.79;100.00;102139.66;5010652;28;20455;-69
2022/07/07 09:59:09;;;;;;;2.57;1.00;;;;;;;16.76;100.00;102159.00;5014496;28;20947;-69
2022/07/07 10:01:39;;;;;;;2.03;0.73;;;;;;;16.81;100.00;102167.38;5016389;28;20455;-69
2022/07/07 10:04:08;;;;;;;2.90;1.00;;;;;;;16.53;100.00;102171.06;5015397;28;20904;-70
2022/07/07 10:06:35;;;;;;;4.90;1.17;;;;;;;16.68;100.00;102185.22;5004203;28;20798;-70
2022/07/07 10:09:16;;;;;;;4.57;1.23;;;;;;;16.20;100.00;102092.44;5015519;28;20437;-69
2022/07/07 10:11:46;;;;;;;3.00;0.87;;;;;;;17.08;100.00;102198.00;4993453;28;20463;-70
2022/07/07 10:14:23;;;;;;;6.30;1.30;;;;;;;17.30;100.00;102180.47;5006848;28;20455;-70
2022/07/07 10:16:52;;;;;;;6.33;1.60;;;;;;;17.44;100.00;102175.84;5011455;28;20792;-69
2022/07/07 10:19:23;;;;;;;5.43;1.50;;;;;;;17.37;100.00;102196.72;5013691;28;20436;-69
2022/07/07 10:21:51;;;;;;;4.47;1.40;;;;;;;16.49;100.00;102113.75;5013824;28;20475;-69
2022/07/07 10:24:18;;;;;;;6.70;1.60;;;;;;;16.84;100.00;102221.16;5009784;28;21146;-69
2022/07/07 10:26:51;;;;;;;7.87;1.50;;;;;;;16.85;100.00;102220.94;5015615;28;20472;-69
2022/07/07 10:29:35;;;;;;;4.63;1.40;;;;;;;16.98;100.00;102220.13;4999742;28;20501;-69
2022/07/07 10:32:00;;;;;;;2.73;1.40;;;;;;;17.39;100.00;102222.59;5014586;28;20832;-69
2022/07/07 10:34:28;;;;;;;5.73;1.90;;;;;;;17.46;100.00;102208.19;5014539;28;20428;-69
2022/07/07 10:37:08;;;;;;;4.43;1.20;;;;;;;17.49;100.00;102211.31;5012803;28;20177;-71
2022/07/07 10:39:41;;;;;;;6.03;2.07;;;;;;;17.23;100.00;102224.91;4998378;28;20453;-70
2022/07/07 10:42:15;;;;;;;6.33;1.80;;;;;;;16.85;100.00;102228.22;5018129;28;21051;-70
2022/07/07 10:44:43;;;;;;;7.13;2.20;;;;;;;16.76;100.00;102224.88;5013398;28;20443;-69
2022/07/07 10:47:30;;;;;;;9.27;2.10;;;;;;;16.69;100.00;102232.13;5017711;28;20475;-69
2022/07/07 10:49:56;;;;;;;6.77;2.17;;;;;;;16.75;100.00;102244.88;5003744;28;20435;-70
2022/07/07 10:52:25;;;;;;;7.13;2.40;;;;;;;15.92;100.00;102136.75;5029505;23;22838;-73
2022/07/07 10:54:50;;;;;;;12.10;2.43;;;;;;;16.31;100.00;102254.31;4987438;28;20439;-72
2022/07/07 10:57:23;;;;;;;12.77;2.90;;;;;;;16.30;100.00;102239.09;5005554;28;20412;-72
2022/07/07 11:00:03;;;;;;;11.93;2.20;;;;;;;16.49;100.00;102256.47;5003612;28;20181;-72
2022/07/07 11:02:32;;;;;;;10.77;2.60;;;;;;;16.47;100.00;102243.13;4998584;28;20550;-73
2022/07/07 11:04:59;;;;;;;5.20;1.80;;;;;;;15.94;100.00;102133.81;4999720;28;20440;-73
2022/07/07 11:07:26;;;;;;;7.73;1.90;;;;;;;16.63;100.00;102238.34;4998994;28;20932;-73
2022/07/07 11:10:09;;;;;;;9.17;2.40;;;;;;;16.94;100.00;102252.19;4983919;28;20450;-72
2022/07/07 11:12:42;;;;;;;6.23;2.10;;;;;;;17.22;100.00;102240.34;4998886;28;20471;-73
2022/07/07 11:15:22;;;;;;;5.57;1.60;;;;;;;17.48;100.00;102225.09;4994845;28;20474;-73
2022/07/07 11:17:56;;;;;;;4.53;1.87;;;;;;;17.60;100.00;102231.53;4996616;28;20447;-73
2022/07/07 11:20:27;;;;;;;14.00;1.70;;;;;;;17.71;100.00;102228.19;4991922;28;20457;-73
2022/07/07 11:23:07;;;;;;;7.00;2.00;;;;;;;17.52;100.00;102219.03;4994932;28;20471;-72